createdAt,value
2023-04-04T00:00:32.748Z,2.27
2023-04-04T00:03:00.811Z,2.30
2023-04-04T00:05:28.746Z,2.29
2023-04-04T00:07:56.616Z,2.32
2023-04-04T00:10:25.781Z,2.32
2023-04-04T00:12:53.749Z,2.29
2023-04-04T00:15:22.258Z,2.27
2023-04-04T00:17:50.479Z,2.20
2023-04-04T00:20:18.448Z,2.16
2023-04-04T00:22:46.373Z,2.15
2023-04-04T00:25:14.481Z,2.15
2023-04-04T00:27:43.832Z,2.17
2023-04-04T00:30:13.417Z,2.12
2023-04-04T00:32:42.830Z,2.12
2023-04-04T00:35:10.888Z,2.12
2023-04-04T00:37:39.048Z,2.05
2023-04-04T00:40:08.578Z,2.02
2023-04-04T00:42:37.347Z,2.01
2023-04-04T00:45:08.616Z,2.01
2023-04-04T00:47:37.276Z,2.03
2023-04-04T00:50:05.956Z,2.04
2023-04-04T00:52:33.864Z,1.99
2023-04-04T00:55:01.761Z,1.97
2023-04-04T00:57:29.953Z,1.93
2023-04-04T00:59:58.434Z,1.91
2023-04-04T01:02:28.139Z,1.87
2023-04-04T01:04:56.792Z,1.93
2023-04-04T01:07:24.833Z,1.80
2023-04-04T01:09:53.124Z,1.76
2023-04-04T01:12:21.104Z,1.75
2023-04-04T01:14:48.970Z,1.70
2023-04-04T01:17:17.465Z,1.72
2023-04-04T01:19:54.872Z,1.70
2023-04-04T01:22:24.455Z,1.70
2023-04-04T01:24:53.190Z,1.68
2023-04-04T01:27:23.698Z,1.63
2023-04-04T01:29:57.075Z,1.66
2023-04-04T01:32:31.036Z,1.60
2023-04-04T01:35:06.820Z,1.64
2023-04-04T01:37:39.558Z,1.66
2023-04-04T01:40:17.748Z,1.61
2023-04-04T01:42:51.517Z,1.58
2023-04-04T01:45:22.957Z,1.65
2023-04-04T01:47:52.098Z,1.62
2023-04-04T01:50:24.188Z,1.55
2023-04-04T01:52:52.230Z,1.52
2023-04-04T01:55:20.273Z,1.59
2023-04-04T01:57:48.053Z,1.62
2023-04-04T02:00:17.782Z,1.60
2023-04-04T02:02:45.970Z,1.59
2023-04-04T02:05:13.972Z,1.49
2023-04-04T02:07:41.995Z,1.47
2023-04-04T02:10:22.058Z,1.48
2023-04-04T02:12:50.270Z,1.40
2023-04-04T02:15:19.489Z,1.34
2023-04-04T02:17:49.464Z,1.42
2023-04-04T02:20:18.553Z,1.40
2023-04-04T02:22:52.694Z,1.34
2023-04-04T02:25:20.607Z,1.36
2023-04-04T02:27:48.350Z,1.39
2023-04-04T02:30:16.494Z,1.33
2023-04-04T02:32:47.308Z,1.31
2023-04-04T02:35:18.537Z,1.28
2023-04-04T02:37:47.366Z,1.30
2023-04-04T02:40:22.270Z,1.31
2023-04-04T02:42:50.392Z,1.24
2023-04-04T02:45:18.644Z,1.27
2023-04-04T02:47:57.963Z,1.28
2023-04-04T02:50:36.277Z,1.22
2023-04-04T02:53:04.709Z,1.14
2023-04-04T02:55:36.090Z,1.14
2023-04-04T02:58:04.231Z,1.16
2023-04-04T03:00:33.050Z,1.14
2023-04-04T03:03:02.574Z,1.17
2023-04-04T03:05:34.245Z,1.21
2023-04-04T03:08:02.961Z,1.17
2023-04-04T03:10:31.111Z,1.13
2023-04-04T03:12:59.112Z,1.19
2023-04-04T03:15:29.040Z,1.23
2023-04-04T03:17:57.096Z,1.19
2023-04-04T03:20:29.127Z,1.14
2023-04-04T03:22:57.767Z,1.14
2023-04-04T03:25:25.854Z,1.16
2023-04-04T03:27:53.743Z,1.10
2023-04-04T03:30:24.665Z,1.03
2023-04-04T03:32:53.494Z,1.07
2023-04-04T03:35:21.648Z,0.97
2023-04-04T03:37:50.851Z,0.97
2023-04-04T03:40:18.607Z,0.89
2023-04-04T03:42:47.063Z,0.86
2023-04-04T03:45:19.835Z,0.95
2023-04-04T03:47:48.261Z,0.94
2023-04-04T03:50:16.696Z,0.96
2023-04-04T03:52:52.191Z,0.94
2023-04-04T03:55:20.410Z,0.95
2023-04-04T03:57:48.330Z,0.96
2023-04-04T04:00:17.760Z,0.95
2023-04-04T04:02:46.903Z,1.01
2023-04-04T04:05:14.883Z,0.94
2023-04-04T04:07:44.652Z,0.96
2023-04-04T04:10:15.137Z,0.94
2023-04-04T04:12:42.875Z,0.95
2023-04-04T04:15:11.398Z,0.98
2023-04-04T04:17:42.013Z,0.99
2023-04-04T04:20:12.477Z,0.96
2023-04-04T04:22:48.146Z,0.93
2023-04-04T04:25:18.517Z,0.93
2023-04-04T04:28:02.769Z,0.89
2023-04-04T04:30:30.608Z,0.95
2023-04-04T04:32:58.696Z,0.95
2023-04-04T04:35:32.985Z,0.91
2023-04-04T04:38:03.244Z,0.84
2023-04-04T04:40:32.842Z,0.86
2023-04-04T04:43:06.807Z,1.00
2023-04-04T04:45:34.707Z,0.95
2023-04-04T04:48:09.024Z,0.92
2023-04-04T04:50:44.475Z,0.80
2023-04-04T04:53:13.856Z,0.81
2023-04-04T04:55:43.733Z,0.75
2023-04-04T04:58:12.206Z,0.72
2023-04-04T05:00:45.525Z,0.77
2023-04-04T05:03:13.705Z,0.73
2023-04-04T05:05:48.750Z,0.72
2023-04-04T05:08:17.645Z,0.74
2023-04-04T05:11:05.819Z,0.74
2023-04-04T05:13:35.178Z,0.73
2023-04-04T05:16:04.746Z,0.76
2023-04-04T05:18:33.854Z,0.74
2023-04-04T05:21:02.724Z,0.83
2023-04-04T05:23:31.212Z,0.96
2023-04-04T05:25:58.936Z,0.90
2023-04-04T05:28:32.658Z,0.86
2023-04-04T05:31:03.777Z,0.90
2023-04-04T05:33:33.423Z,0.89
2023-04-04T05:36:09.136Z,0.92
2023-04-04T05:38:42.956Z,0.96
2023-04-04T05:41:11.397Z,0.98
2023-04-04T05:43:40.966Z,0.83
2023-04-04T05:46:14.507Z,0.96
2023-04-04T05:48:47.523Z,0.87
2023-04-04T05:51:15.604Z,1.03
2023-04-04T05:54:03.648Z,1.19
2023-04-04T05:56:36.337Z,1.22
2023-04-04T05:59:09.643Z,1.18
2023-04-04T06:01:48.419Z,1.15
2023-04-04T06:04:16.550Z,1.38
2023-04-04T06:06:45.434Z,1.74
2023-04-04T06:09:13.733Z,2.05
2023-04-04T06:11:41.595Z,2.00
2023-04-04T06:14:15.163Z,2.45
2023-04-04T06:16:44.364Z,2.72
2023-04-04T06:19:12.070Z,3.05
2023-04-04T06:21:39.832Z,2.93
2023-04-04T06:24:09.232Z,3.14
2023-04-04T06:26:37.779Z,3.35
2023-04-04T06:29:05.641Z,3.75
2023-04-04T06:31:38.687Z,4.06
2023-04-04T06:34:11.290Z,4.23
2023-04-04T06:36:55.513Z,4.28
2023-04-04T06:39:27.287Z,4.14
2023-04-04T06:41:58.230Z,4.22
2023-04-04T06:44:29.227Z,4.75
2023-04-04T06:46:58.850Z,4.93
2023-04-04T06:49:26.771Z,4.77
2023-04-04T06:51:55.313Z,4.64
2023-04-04T06:54:23.390Z,4.60
2023-04-04T06:56:51.688Z,4.47
2023-04-04T06:59:19.689Z,4.30
2023-04-04T07:01:47.530Z,4.43
2023-04-04T07:04:19.915Z,4.59
2023-04-04T07:06:47.668Z,4.63
2023-04-04T07:09:28.115Z,4.93
2023-04-04T07:11:57.235Z,5.14
2023-04-04T07:14:25.744Z,5.39
2023-04-04T07:16:55.127Z,5.35
2023-04-04T07:19:28.548Z,5.74
2023-04-04T07:21:56.862Z,5.80
2023-04-04T07:24:24.768Z,5.74
2023-04-04T07:26:52.585Z,6.01
2023-04-04T07:29:21.609Z,6.14
2023-04-04T07:31:49.626Z,6.25
2023-04-04T07:34:17.670Z,6.06
2023-04-04T07:36:46.795Z,6.38
2023-04-04T07:39:14.733Z,6.34
2023-04-04T07:41:42.551Z,6.42
2023-04-04T07:44:10.684Z,6.26
2023-04-04T07:46:38.998Z,6.44
2023-04-04T07:49:07.592Z,6.33
2023-04-04T07:51:35.653Z,6.21
2023-04-04T07:54:05.076Z,6.54
2023-04-04T07:56:33.316Z,6.22
2023-04-04T07:59:01.954Z,6.50
2023-04-04T08:01:30.811Z,6.86
2023-04-04T08:03:58.885Z,6.62
2023-04-04T08:06:27.261Z,6.52
2023-04-04T08:08:57.548Z,6.81
2023-04-04T08:11:27.337Z,7.08
2023-04-04T08:13:55.112Z,7.14
2023-04-04T08:16:23.749Z,7.48
2023-04-04T08:18:51.636Z,7.14
2023-04-04T08:21:19.644Z,7.42
2023-04-04T08:23:47.369Z,7.22
2023-04-04T08:26:15.494Z,7.39
2023-04-04T08:28:45.404Z,6.81
2023-04-04T08:31:13.307Z,6.85
2023-04-04T08:36:12.174Z,6.77
2023-04-04T08:38:39.886Z,6.81
2023-04-04T08:41:08.744Z,6.65
2023-04-04T08:43:41.306Z,6.50
2023-04-04T08:46:11.682Z,6.96
2023-04-04T08:48:40.710Z,7.40
2023-04-04T08:51:11.886Z,7.77
2023-04-04T08:53:40.494Z,7.96
2023-04-04T08:56:08.571Z,7.65
2023-04-04T08:58:38.956Z,7.90
2023-04-04T09:01:07.358Z,7.68
2023-04-04T09:03:38.713Z,8.27
2023-04-04T09:06:07.286Z,8.11
2023-04-04T09:08:36.146Z,8.57
2023-04-04T09:11:04.969Z,8.54
2023-04-04T09:13:32.798Z,8.26
2023-04-04T09:16:01.966Z,8.29
2023-04-04T09:18:30.092Z,8.62
2023-04-04T09:20:59.727Z,8.46
2023-04-04T09:23:27.462Z,8.65
2023-04-04T09:26:03.664Z,8.68
2023-04-04T09:28:32.888Z,8.62
2023-04-04T09:31:02.428Z,8.78
2023-04-04T09:33:30.562Z,8.90
2023-04-04T09:36:03.180Z,8.96
2023-04-04T09:38:32.366Z,8.18
2023-04-04T09:41:00.555Z,8.14
2023-04-04T09:43:30.753Z,8.41
2023-04-04T09:46:00.259Z,7.32
2023-04-04T09:48:30.547Z,8.30
2023-04-04T09:51:00.561Z,8.48
2023-04-04T09:53:28.588Z,8.71
2023-04-04T09:55:58.238Z,8.93
2023-04-04T09:58:27.652Z,8.62
2023-04-04T10:00:57.218Z,9.00
2023-04-04T10:03:26.235Z,9.25
2023-04-04T10:05:59.988Z,9.32
2023-04-04T10:08:30.627Z,9.03
2023-04-04T10:11:10.327Z,9.46
2023-04-04T10:13:44.061Z,9.27
2023-04-04T10:16:12.504Z,9.20
2023-04-04T10:18:40.855Z,9.46
2023-04-04T10:23:43.253Z,9.38
2023-04-04T10:26:12.132Z,9.24
2023-04-04T10:28:40.309Z,8.90
2023-04-04T10:31:14.996Z,9.08
2023-04-04T10:33:49.222Z,9.44
2023-04-04T10:36:23.530Z,9.57
2023-04-04T10:39:04.252Z,10.21
2023-04-04T10:41:32.953Z,9.41
2023-04-04T10:44:08.346Z,9.73
2023-04-04T10:46:39.423Z,9.44
2023-04-04T10:49:07.492Z,9.08
2023-04-04T10:51:45.242Z,9.36
2023-04-04T10:54:22.921Z,9.89
2023-04-04T10:56:50.785Z,9.67
2023-04-04T10:59:18.882Z,9.79
2023-04-04T11:01:51.145Z,9.97
2023-04-04T11:04:22.040Z,9.62
2023-04-04T11:07:20.555Z,10.10
2023-04-04T11:10:01.829Z,9.94
2023-04-04T11:12:33.570Z,10.01
2023-04-04T11:15:10.801Z,9.61
2023-04-04T11:18:00.262Z,9.57
2023-04-04T11:20:33.463Z,9.62
2023-04-04T11:23:10.820Z,9.80
2023-04-04T11:25:42.196Z,10.20
2023-04-04T11:28:14.898Z,10.27
2023-04-04T11:30:51.640Z,10.10
2023-04-04T11:33:28.798Z,9.86
2023-04-04T11:36:00.599Z,10.01
2023-04-04T11:38:29.974Z,9.98
2023-04-04T11:40:59.525Z,10.14
2023-04-04T11:43:29.796Z,10.06
2023-04-04T11:46:08.713Z,10.03
2023-04-04T11:48:36.817Z,9.95
2023-04-04T11:51:05.268Z,10.43
2023-04-04T11:53:34.255Z,10.29
2023-04-04T11:56:04.014Z,10.46
2023-04-04T11:58:37.101Z,10.51
2023-04-04T12:01:06.010Z,10.65
2023-04-04T12:03:35.012Z,10.84
2023-04-04T12:06:03.064Z,10.50
2023-04-04T12:08:33.633Z,10.83
2023-04-04T12:11:09.481Z,11.10
2023-04-04T12:13:43.482Z,10.83
2023-04-04T12:16:11.781Z,11.38
2023-04-04T12:18:39.944Z,11.09
2023-04-04T12:21:08.529Z,11.20
2023-04-04T12:23:36.879Z,11.27
2023-04-04T12:26:07.144Z,11.06
2023-04-04T12:28:36.103Z,10.80
2023-04-04T12:31:05.702Z,11.06
2023-04-04T12:33:35.569Z,11.34
2023-04-04T12:36:05.246Z,11.50
2023-04-04T12:38:33.930Z,11.68
2023-04-04T12:41:01.939Z,11.40
2023-04-04T12:43:33.853Z,11.47
2023-04-04T12:46:03.250Z,11.18
2023-04-04T12:48:31.736Z,11.10
2023-04-04T12:51:00.758Z,11.37
2023-04-04T12:53:30.169Z,10.52
2023-04-04T12:56:03.122Z,10.90
2023-04-04T12:58:34.882Z,10.87
2023-04-04T13:01:04.775Z,11.40
2023-04-04T13:03:34.798Z,11.52
2023-04-04T13:06:03.726Z,11.23
2023-04-04T13:08:31.716Z,11.32
2023-04-04T13:11:03.615Z,10.87
2023-04-04T13:13:38.644Z,10.69
2023-04-04T13:16:08.154Z,9.75
2023-04-04T13:18:39.236Z,10.45
2023-04-04T13:21:10.898Z,10.46
2023-04-04T13:23:40.611Z,10.74
2023-04-04T13:26:09.972Z,10.55
2023-04-04T13:28:40.170Z,10.10
2023-04-04T13:31:10.018Z,10.31
2023-04-04T13:33:38.880Z,10.35
2023-04-04T13:36:07.530Z,10.63
2023-04-04T13:38:36.052Z,10.62
2023-04-04T13:41:03.918Z,10.90
2023-04-04T13:43:31.820Z,10.57
2023-04-04T13:46:01.117Z,10.69
2023-04-04T13:48:28.954Z,10.83
2023-04-04T13:50:57.459Z,10.74
2023-04-04T13:53:25.409Z,10.92
2023-04-04T13:58:24.028Z,10.64
2023-04-04T14:00:52.498Z,10.56
2023-04-04T14:03:22.446Z,11.03
2023-04-04T14:05:50.364Z,10.28
2023-04-04T14:08:18.181Z,10.57
2023-04-04T14:10:46.316Z,10.73
2023-04-04T14:13:14.405Z,10.51
2023-04-04T14:15:42.895Z,10.79
2023-04-04T14:18:12.214Z,10.78
2023-04-04T14:20:41.548Z,11.11
2023-04-04T14:23:09.701Z,10.77
2023-04-04T14:25:37.679Z,10.58
2023-04-04T14:28:06.213Z,10.65
2023-04-04T14:30:34.088Z,11.00
2023-04-04T14:33:02.119Z,10.97
2023-04-04T14:35:29.903Z,10.98
2023-04-04T14:37:59.017Z,11.02
2023-04-04T14:40:27.328Z,11.14
2023-04-04T14:42:55.156Z,10.79
2023-04-04T14:45:23.742Z,10.94
2023-04-04T14:47:51.810Z,11.01
2023-04-04T14:50:19.659Z,10.92
2023-04-04T14:52:51.041Z,11.09
2023-04-04T14:55:20.867Z,11.11
2023-04-04T14:58:01.209Z,11.00
2023-04-04T15:00:30.213Z,10.84
2023-04-04T15:02:58.329Z,10.72
2023-04-04T15:05:26.386Z,10.94
2023-04-04T15:07:55.526Z,10.96
2023-04-04T15:10:24.716Z,10.74
2023-04-04T15:12:52.467Z,10.43
2023-04-04T15:15:21.660Z,10.58
2023-04-04T15:17:51.432Z,10.80
2023-04-04T15:20:19.268Z,10.96
2023-04-04T15:22:47.072Z,10.98
2023-04-04T15:25:14.959Z,10.64
2023-04-04T15:27:44.002Z,10.78
2023-04-04T15:30:13.441Z,10.88
2023-04-04T15:32:41.355Z,10.56
2023-04-04T15:35:17.492Z,10.65
2023-04-04T15:37:45.724Z,10.67
2023-04-04T15:40:13.876Z,10.66
2023-04-04T15:42:41.759Z,10.68
2023-04-04T15:45:12.358Z,10.65
2023-04-04T15:47:40.287Z,10.85
2023-04-04T15:50:08.965Z,10.73
2023-04-04T15:52:36.682Z,10.71
2023-04-04T15:55:04.800Z,10.43
2023-04-04T15:57:32.953Z,10.54
2023-04-04T16:00:00.879Z,10.52
2023-04-04T16:02:30.098Z,10.46
2023-04-04T16:04:58.458Z,10.86
2023-04-04T16:07:26.529Z,10.42
2023-04-04T16:09:54.352Z,10.42
2023-04-04T16:12:22.442Z,10.30
2023-04-04T16:14:50.343Z,10.49
2023-04-04T16:17:18.118Z,10.39
2023-04-04T16:19:47.659Z,10.35
2023-04-04T16:22:15.439Z,10.24
2023-04-04T16:24:43.209Z,10.13
2023-04-04T16:27:11.885Z,10.06
2023-04-04T16:29:39.804Z,10.02
2023-04-04T16:32:08.151Z,10.07
2023-04-04T16:34:38.795Z,9.77
2023-04-04T16:37:09.733Z,9.91
2023-04-04T16:39:37.504Z,9.75
2023-04-04T16:42:05.435Z,9.80
2023-04-04T16:44:33.280Z,9.66
2023-04-04T16:47:01.039Z,9.65
2023-04-04T16:49:28.997Z,9.24
2023-04-04T16:51:56.839Z,9.61
2023-04-04T16:54:26.285Z,9.56
2023-04-04T16:56:54.442Z,9.43
2023-04-04T16:59:22.149Z,9.45
2023-04-04T17:01:49.949Z,9.49
2023-04-04T17:04:17.865Z,9.29
2023-04-04T17:06:45.916Z,9.37
2023-04-04T17:09:13.830Z,9.32
2023-04-04T17:11:44.924Z,9.37
2023-04-04T17:14:12.763Z,9.07
2023-04-04T17:16:40.744Z,9.06
2023-04-04T17:19:08.764Z,9.19
2023-04-04T17:21:36.794Z,9.20
2023-04-04T17:24:05.713Z,9.14
2023-04-04T17:26:34.050Z,8.99
2023-04-04T17:29:03.205Z,9.19
2023-04-04T17:31:31.137Z,8.96
2023-04-04T17:33:59.008Z,9.07
2023-04-04T17:36:27.086Z,8.96
2023-04-04T17:38:55.335Z,8.86
2023-04-04T17:41:23.252Z,8.95
2023-04-04T17:43:52.043Z,8.89
2023-04-04T17:46:21.119Z,8.91
2023-04-04T17:48:48.827Z,8.91
2023-04-04T17:51:17.782Z,8.87
2023-04-04T17:53:46.032Z,8.80
2023-04-04T17:56:13.962Z,8.70
2023-04-04T17:58:41.759Z,8.73
2023-04-04T18:01:09.774Z,8.64
2023-04-04T18:03:39.075Z,8.68
2023-04-04T18:06:07.077Z,8.66
2023-04-04T18:08:34.837Z,8.53
2023-04-04T18:11:04.090Z,8.64
2023-04-04T18:13:32.236Z,8.38
2023-04-04T18:16:02.524Z,8.37
2023-04-04T18:18:30.776Z,8.48
2023-04-04T18:21:00.360Z,8.40
2023-04-04T18:23:28.385Z,8.26
2023-04-04T18:25:56.639Z,8.19
2023-04-04T18:28:24.879Z,8.24
2023-04-04T18:30:52.932Z,8.07
2023-04-04T18:33:21.068Z,8.09
2023-04-04T18:35:48.927Z,8.01
2023-04-04T18:38:18.116Z,7.94
2023-04-04T18:40:46.912Z,7.79
2023-04-04T18:43:14.917Z,7.73
2023-04-04T18:45:42.894Z,7.82
2023-04-04T18:48:12.600Z,7.81
2023-04-04T18:50:40.966Z,7.69
2023-04-04T18:53:09.215Z,7.68
2023-04-04T18:55:39.193Z,7.62
2023-04-04T18:58:06.932Z,7.67
2023-04-04T19:00:34.755Z,7.56
2023-04-04T19:03:03.101Z,7.53
2023-04-04T19:05:33.324Z,7.56
2023-04-04T19:08:02.563Z,7.57
2023-04-04T19:10:30.934Z,7.52
2023-04-04T19:13:00.013Z,7.51
2023-04-04T19:15:28.027Z,7.58
2023-04-04T19:17:55.990Z,7.52
2023-04-04T19:20:23.774Z,7.48
2023-04-04T19:22:51.571Z,7.45
2023-04-04T19:25:20.344Z,7.43
2023-04-04T19:27:48.146Z,7.46
2023-04-04T19:30:49.154Z,7.44
2023-04-04T19:33:20.163Z,7.37
2023-04-04T19:35:51.995Z,7.36
2023-04-04T19:38:23.948Z,7.30
2023-04-04T19:40:54.701Z,7.31
2023-04-04T19:43:23.435Z,7.20
2023-04-04T19:45:52.942Z,7.16
2023-04-04T19:48:43.565Z,7.12
2023-04-04T19:51:33.476Z,7.05
2023-04-04T19:54:01.751Z,7.06
2023-04-04T19:56:29.990Z,6.94
2023-04-04T19:59:00.066Z,6.96
2023-04-04T20:01:30.020Z,6.93
2023-04-04T20:04:06.600Z,6.90
2023-04-04T20:06:35.628Z,6.94
2023-04-04T20:09:08.219Z,6.87
2023-04-04T20:11:38.034Z,6.87
2023-04-04T20:14:08.262Z,6.86
2023-04-04T20:16:36.912Z,6.80
2023-04-04T20:19:08.094Z,6.88
2023-04-04T20:21:36.138Z,6.85
2023-04-04T20:24:08.337Z,6.86
2023-04-04T20:26:51.171Z,6.80
2023-04-04T20:29:21.786Z,6.86
2023-04-04T20:31:51.692Z,6.87
2023-04-04T20:34:38.762Z,6.77
2023-04-04T20:37:09.240Z,6.70
2023-04-04T20:39:41.506Z,6.66
2023-04-04T20:42:20.320Z,6.70
2023-04-04T20:44:48.173Z,6.68
2023-04-04T20:47:41.878Z,6.65
2023-04-04T20:50:45.220Z,6.62
2023-04-04T20:53:20.990Z,6.66
2023-04-04T20:55:50.565Z,6.65
2023-04-04T20:58:26.748Z,6.68
2023-04-04T21:00:55.141Z,6.62
2023-04-04T21:03:37.458Z,6.62
2023-04-04T21:06:15.113Z,6.63
2023-04-04T21:08:45.408Z,6.55
2023-04-04T21:11:14.444Z,6.60
2023-04-04T21:13:44.702Z,6.59
2023-04-04T21:16:14.086Z,6.50
2023-04-04T21:18:42.714Z,6.44
2023-04-04T21:21:19.934Z,6.40
2023-04-04T21:23:53.225Z,6.30
2023-04-04T21:26:33.009Z,6.39
2023-04-04T21:29:02.468Z,6.36
2023-04-04T21:31:35.890Z,6.30
2023-04-04T21:34:08.920Z,6.21
2023-04-04T21:36:38.338Z,6.13
2023-04-04T21:39:10.846Z,6.03
2023-04-04T21:41:38.879Z,6.00
2023-04-04T21:44:08.334Z,5.93
2023-04-04T21:46:37.578Z,5.82
2023-04-04T21:49:06.366Z,5.79
2023-04-04T21:51:34.319Z,5.79
2023-04-04T21:54:03.764Z,5.81
2023-04-04T21:56:32.458Z,5.78
2023-04-04T21:59:00.905Z,5.69
2023-04-04T22:01:28.944Z,5.67
2023-04-04T22:03:56.935Z,5.58
2023-04-04T22:06:26.408Z,5.51
2023-04-04T22:08:56.562Z,5.45
2023-04-04T22:11:27.605Z,5.32
2023-04-04T22:14:03.984Z,5.33
2023-04-04T22:16:36.751Z,5.33
2023-04-04T22:19:04.903Z,5.28
2023-04-04T22:21:36.465Z,5.19
2023-04-04T22:24:05.822Z,5.11
2023-04-04T22:26:35.674Z,5.02
2023-04-04T22:29:06.125Z,4.94
2023-04-04T22:31:35.198Z,4.93
2023-04-04T22:34:03.931Z,4.89
2023-04-04T22:36:34.330Z,4.79
2023-04-04T22:39:02.746Z,4.80
2023-04-04T22:41:30.875Z,4.73
2023-04-04T22:44:00.166Z,4.52
2023-04-04T22:46:29.299Z,4.42
2023-04-04T22:49:04.873Z,4.35
2023-04-04T22:51:44.861Z,4.22
2023-04-04T22:54:14.172Z,4.32
2023-04-04T22:56:42.262Z,4.12
2023-04-04T22:59:12.070Z,4.09
2023-04-04T23:01:40.586Z,4.12
2023-04-04T23:04:08.484Z,4.12
2023-04-04T23:06:38.689Z,4.00
2023-04-04T23:09:07.472Z,4.05
2023-04-04T23:11:35.474Z,4.09
2023-04-04T23:14:08.439Z,4.05
2023-04-04T23:16:37.817Z,3.98
2023-04-04T23:19:05.668Z,3.90
2023-04-04T23:21:33.487Z,3.91
2023-04-04T23:24:01.315Z,3.82
2023-04-04T23:26:29.077Z,3.81
2023-04-04T23:28:57.066Z,3.75
2023-04-04T23:31:25.883Z,3.63
2023-04-04T23:33:55.375Z,3.64
2023-04-04T23:36:23.383Z,3.72
2023-04-04T23:38:51.396Z,3.66
2023-04-04T23:41:19.304Z,3.56
2023-04-04T23:43:47.089Z,3.62
2023-04-04T23:46:15.373Z,3.66
2023-04-04T23:48:43.270Z,3.62
2023-04-04T23:51:13.164Z,3.59
2023-04-04T23:53:41.292Z,3.56
2023-04-04T23:56:09.329Z,3.61
2023-04-04T23:58:38.070Z,3.44
